Time;durP1;ratioP1;P1;durP2;ratioP2;P2;SDS_P1;SDS_P2;PMS_P1;PMS_P2;Temp;Humidity;BMP_temperature;BMP_pressure;BME280_temperature;BME280_humidity;BME280_pressure;Samples;Min_cycle;Max_cycle;Signal;HPM_P1;HPM_P2
2021/04/18 00:00:36;;;;;;;23.63;14.47;;;7.00;99.90;;;;;;4160779;28;20059;-62
2021/04/18 00:02:38;;;;;;;21.87;14.07;;;7.00;99.90;;;;;;4159448;28;20401;-61
2021/04/18 00:04:39;;;;;;;24.07;13.50;;;7.00;99.90;;;;;;4160185;28;20033;-61
2021/04/18 00:06:40;;;;;;;23.67;13.43;;;7.00;99.90;;;;;;4159399;28;20433;-62
2021/04/18 00:08:41;;;;;;;22.37;12.93;;;7.00;99.90;;;;;;4160279;28;20060;-62
2021/04/18 00:10:43;;;;;;;21.17;12.97;;;7.00;99.90;;;;;;4159707;28;20030;-61
2021/04/18 00:12:45;;;;;;;26.80;13.93;;;7.00;99.90;;;;;;4158605;28;20633;-62
2021/04/18 00:14:46;;;;;;;22.13;12.40;;;7.00;99.90;;;;;;4159407;28;20041;-62
2021/04/18 00:16:47;;;;;;;23.00;12.83;;;7.00;99.90;;;;;;4159251;28;20037;-61
2021/04/18 00:18:48;;;;;;;24.00;13.47;;;7.00;99.90;;;;;;4159376;28;20049;-61
2021/04/18 00:20:49;;;;;;;23.47;13.23;;;7.00;99.90;;;;;;4159588;28;20453;-62
2021/04/18 00:22:50;;;;;;;19.50;12.13;;;7.00;99.90;;;;;;4160271;28;20037;-61
2021/04/18 00:24:51;;;;;;;21.17;12.53;;;7.00;99.90;;;;;;4159404;28;20076;-61
2021/04/18 00:26:52;;;;;;;21.90;11.63;;;7.00;99.90;;;;;;4159604;28;20436;-61
2021/04/18 00:28:54;;;;;;;23.27;13.47;;;7.00;99.90;;;;;;4158164;28;20084;-62
2021/04/18 00:30:55;;;;;;;22.43;12.83;;;7.00;99.90;;;;;;4160318;28;20037;-62
2021/04/18 00:32:56;;;;;;;21.67;12.37;;;7.00;99.90;;;;;;4158440;28;20104;-62
2021/04/18 00:34:57;;;;;;;22.67;12.80;;;7.00;99.90;;;;;;4159450;28;20432;-62
2021/04/18 00:36:58;;;;;;;22.53;13.13;;;7.00;99.90;;;;;;4159058;28;20033;-62
2021/04/18 00:38:59;;;;;;;22.00;13.63;;;7.00;99.90;;;;;;4160042;28;20497;-62
2021/04/18 00:41:01;;;;;;;21.23;12.83;;;6.90;99.90;;;;;;4159489;28;20038;-61
2021/04/18 00:43:02;;;;;;;18.90;12.37;;;6.90;99.90;;;;;;4140439;28;20088;-62
2021/04/18 00:45:06;;;;;;;20.97;12.40;;;6.90;99.90;;;;;;4160033;28;20037;-62
2021/04/18 00:47:07;;;;;;;22.53;12.67;;;6.90;99.90;;;;;;4157185;28;20044;-66
2021/04/18 00:49:08;;;;;;;20.63;12.93;;;6.90;99.90;;;;;;4159933;28;20033;-62
2021/04/18 00:51:11;;;;;;;21.27;11.77;;;6.90;99.90;;;;;;4158208;28;20099;-62
2021/04/18 00:53:12;;;;;;;18.00;11.10;;;6.90;99.90;;;;;;4160287;28;20099;-62
2021/04/18 00:55:14;;;;;;;20.43;11.10;;;6.90;99.90;;;;;;4158729;28;20029;-62
2021/04/18 00:57:15;;;;;;;20.20;11.53;;;6.90;99.90;;;;;;4159770;28;20367;-62
2021/04/18 00:59:17;;;;;;;20.83;12.20;;;6.90;99.90;;;;;;4158255;28;20045;-61
2021/04/18 01:01:18;;;;;;;22.30;13.20;;;6.90;99.90;;;;;;4159846;28;20037;-62
2021/04/18 01:03:19;;;;;;;21.23;12.53;;;6.90;99.90;;;;;;4158353;28;20087;-63
2021/04/18 01:05:20;;;;;;;23.93;13.63;;;6.90;99.90;;;;;;4159298;28;20041;-62
2021/04/18 01:07:22;;;;;;;20.90;12.43;;;6.90;99.90;;;;;;4158375;28;20025;-62
2021/04/18 01:09:23;;;;;;;23.47;12.77;;;6.90;99.90;;;;;;4159494;28;20072;-61
2021/04/18 01:11:24;;;;;;;20.77;12.27;;;6.80;99.90;;;;;;4158544;28;20083;-62
2021/04/18 01:13:25;;;;;;;24.67;12.60;;;6.80;99.90;;;;;;4158309;28;20106;-61
2021/04/18 01:15:27;;;;;;;23.63;13.47;;;6.80;99.90;;;;;;4158303;28;20041;-61
2021/04/18 01:17:28;;;;;;;18.70;11.83;;;6.80;99.90;;;;;;4157925;28;20398;-61
2021/04/18 01:19:29;;;;;;;26.30;13.23;;;6.80;99.90;;;;;;4158570;28;20107;-62
2021/04/18 01:21:30;;;;;;;21.07;12.60;;;6.80;99.90;;;;;;4157976;28;20072;-62
2021/04/18 01:23:31;;;;;;;20.03;12.40;;;6.70;99.90;;;;;;4157094;28;20095;-64
2021/04/18 01:25:32;;;;;;;20.47;12.33;;;6.80;99.90;;;;;;4157898;28;20033;-61
2021/04/18 01:27:35;;;;;;;20.63;11.93;;;6.80;99.90;;;;;;4159056;28;20083;-62
2021/04/18 01:29:37;;;;;;;20.37;11.90;;;6.80;99.90;;;;;;4157806;28;20053;-62
2021/04/18 01:31:39;;;;;;;19.47;12.17;;;6.80;99.90;;;;;;4158537;28;20037;-62
2021/04/18 01:33:40;;;;;;;16.97;11.03;;;6.80;99.90;;;;;;4157833;28;20017;-61
2021/04/18 01:35:46;;;;;;;20.93;12.00;;;6.80;99.90;;;;;;4158484;28;20091;-61
2021/04/18 01:37:48;;;;;;;22.33;13.33;;;6.80;99.90;;;;;;4157826;28;20022;-62
2021/04/18 01:39:49;;;;;;;19.87;11.30;;;6.80;99.90;;;;;;4158647;28;20057;-62
2021/04/18 01:41:51;;;;;;;22.13;12.70;;;6.70;99.90;;;;;;4158268;28;20139;-61
2021/04/18 01:43:52;;;;;;;21.33;13.27;;;6.70;99.90;;;;;;4158568;28;20107;-62
2021/04/18 01:45:53;;;;;;;23.40;13.23;;;6.70;99.90;;;;;;4158465;28;20087;-62
2021/04/18 01:47:55;;;;;;;24.57;13.60;;;6.70;99.90;;;;;;4157799;28;20038;-62
2021/04/18 01:49:56;;;;;;;23.70;14.53;;;6.70;99.90;;;;;;4158592;28;20103;-61
2021/04/18 01:51:58;;;;;;;23.47;13.93;;;6.70;99.90;;;;;;4156829;28;20045;-67
2021/04/18 01:54:00;;;;;;;26.60;14.87;;;6.70;99.90;;;;;;4158864;28;20496;-61
2021/04/18 01:56:02;;;;;;;25.83;14.80;;;6.70;99.90;;;;;;4157394;28;20446;-62
2021/04/18 01:58:05;;;;;;;26.50;14.70;;;6.70;99.90;;;;;;4158386;28;20033;-61
2021/04/18 02:00:08;;;;;;;21.37;13.57;;;6.60;99.90;;;;;;4156994;28;20126;-61
2021/04/18 02:02:11;;;;;;;24.90;14.07;;;6.60;99.90;;;;;;4141040;28;20049;-61
2021/04/18 02:04:21;;;;;;;20.73;13.57;;;6.60;99.90;;;;;;4156964;28;20042;-62
2021/04/18 02:06:22;;;;;;;22.52;13.23;;;6.60;99.90;;;;;;4158319;28;20041;-61
2021/04/18 02:08:24;;;;;;;21.27;12.27;;;6.60;99.90;;;;;;4157188;28;20970;-62
2021/04/18 02:10:25;;;;;;;22.03;13.53;;;6.60;99.90;;;;;;4158542;28;20063;-62
2021/04/18 02:12:27;;;;;;;25.43;13.90;;;6.60;99.90;;;;;;4157225;28;20033;-61
2021/04/18 02:14:28;;;;;;;24.87;14.00;;;6.50;99.90;;;;;;4157825;28;20095;-61
2021/04/18 02:16:29;;;;;;;22.87;12.97;;;6.50;99.90;;;;;;4157029;28;20045;-62
2021/04/18 02:18:30;;;;;;;26.30;15.77;;;6.50;99.90;;;;;;4157864;28;20091;-63
2021/04/18 02:20:31;;;;;;;28.70;16.53;;;6.50;99.90;;;;;;4157703;28;20026;-61
2021/04/18 02:22:33;;;;;;;27.20;16.20;;;6.40;99.90;;;;;;4157851;28;20947;-62
2021/04/18 02:24:34;;;;;;;21.43;14.50;;;6.30;99.90;;;;;;4157043;28;21096;-61
2021/04/18 02:26:35;;;;;;;23.63;14.53;;;6.30;99.90;;;;;;4156858;28;20042;-61
2021/04/18 02:28:36;;;;;;;25.13;15.40;;;6.30;99.90;;;;;;4158187;28;20041;-62
2021/04/18 02:30:38;;;;;;;28.03;15.53;;;6.30;99.90;;;;;;4156069;28;20053;-61
2021/04/18 02:32:41;;;;;;;23.70;14.57;;;6.30;99.90;;;;;;4158032;28;20037;-62
2021/04/18 02:34:42;;;;;;;24.77;14.50;;;6.40;99.90;;;;;;4155503;28;20507;-62
2021/04/18 02:36:43;;;;;;;33.33;14.97;;;6.40;99.90;;;;;;4158338;28;20084;-61
2021/04/18 02:38:44;;;;;;;25.13;14.80;;;6.40;99.90;;;;;;4156518;28;20484;-63
2021/04/18 02:40:45;;;;;;;25.00;14.30;;;6.40;99.90;;;;;;4157298;28;20049;-61
2021/04/18 02:42:47;;;;;;;25.03;14.33;;;6.30;99.90;;;;;;4156073;28;20421;-61
2021/04/18 02:44:48;;;;;;;25.30;14.90;;;6.30;99.90;;;;;;4158145;28;20083;-61
2021/04/18 02:46:49;;;;;;;29.90;16.63;;;6.30;99.90;;;;;;4157085;28;20033;-61
2021/04/18 02:48:50;;;;;;;29.50;17.37;;;6.30;99.90;;;;;;4157017;28;20042;-65
2021/04/18 02:50:51;;;;;;;31.43;18.20;;;6.30;99.90;;;;;;4157211;28;20033;-61
2021/04/18 02:52:52;;;;;;;30.43;17.20;;;6.20;99.90;;;;;;4156759;28;20029;-62
2021/04/18 02:54:53;;;;;;;34.43;19.17;;;6.10;99.90;;;;;;4139973;28;20105;-61
2021/04/18 02:56:54;;;;;;;34.27;19.40;;;6.10;99.90;;;;;;4156217;28;20033;-62
2021/04/18 02:58:56;;;;;;;32.03;18.47;;;6.10;99.90;;;;;;4158020;28;20960;-62
2021/04/18 03:00:57;;;;;;;32.70;19.63;;;6.10;99.90;;;;;;4156609;28;20087;-61
2021/04/18 03:02:58;;;;;;;32.20;18.03;;;6.10;99.90;;;;;;4157911;28;20587;-61
2021/04/18 03:05:00;;;;;;;31.93;20.20;;;6.00;99.90;;;;;;4156522;28;20270;-62
2021/04/18 03:07:01;;;;;;;29.07;17.93;;;6.00;99.90;;;;;;4157755;28;21157;-62
2021/04/18 03:09:03;;;;;;;29.07;18.17;;;5.90;99.90;;;;;;4156612;28;20270;-61
2021/04/18 03:11:04;;;;;;;29.00;18.53;;;5.80;99.90;;;;;;4157616;28;20278;-62
2021/04/18 03:13:05;;;;;;;27.50;16.63;;;5.80;99.90;;;;;;4156141;28;20037;-62
2021/04/18 03:15:08;;;;;;;31.43;17.00;;;5.70;99.90;;;;;;4158024;28;20751;-61
2021/04/18 03:17:09;;;;;;;27.53;17.00;;;5.70;99.90;;;;;;4156745;28;20809;-63
2021/04/18 03:19:10;;;;;;;30.40;17.23;;;5.70;99.90;;;;;;4157053;28;20301;-63
2021/04/18 03:21:11;;;;;;;26.73;16.73;;;5.80;99.90;;;;;;4156897;28;20309;-62
2021/04/18 03:23:12;;;;;;;25.37;15.93;;;5.80;99.90;;;;;;4156477;28;20321;-64
2021/04/18 03:25:14;;;;;;;29.03;16.27;;;5.70;99.90;;;;;;4157365;28;20344;-63
2021/04/18 03:27:16;;;;;;;26.40;15.47;;;5.70;99.90;;;;;;4156460;28;20286;-62
2021/04/18 03:29:17;;;;;;;27.53;16.73;;;5.60;99.90;;;;;;4156806;28;20287;-62
2021/04/18 03:31:18;;;;;;;28.53;16.10;;;5.60;99.90;;;;;;4156191;28;20278;-61
2021/04/18 03:33:20;;;;;;;30.23;16.43;;;5.60;99.90;;;;;;4157475;28;20103;-63
2021/04/18 03:35:21;;;;;;;25.87;14.93;;;5.60;99.90;;;;;;4155776;28;20037;-61
2021/04/18 03:37:22;;;;;;;24.40;14.97;;;5.60;99.90;;;;;;4157313;28;20266;-61
2021/04/18 03:39:23;;;;;;;28.43;14.37;;;5.60;99.90;;;;;;4156843;28;20757;-61
2021/04/18 03:41:24;;;;;;;27.03;14.43;;;5.60;99.90;;;;;;4157063;28;20330;-62
2021/04/18 03:43:26;;;;;;;23.03;13.80;;;5.60;99.90;;;;;;4156540;28;20317;-62
2021/04/18 03:45:27;;;;;;;21.70;13.77;;;5.60;99.90;;;;;;4156646;28;20271;-61
2021/04/18 03:47:28;;;;;;;26.97;14.10;;;5.60;99.90;;;;;;4155775;28;20696;-62
2021/04/18 03:49:29;;;;;;;26.20;15.03;;;5.60;99.90;;;;;;4156451;28;20282;-61
2021/04/18 03:51:30;;;;;;;26.70;14.63;;;5.60;99.90;;;;;;4155971;28;20262;-62
2021/04/18 03:53:31;;;;;;;26.20;14.63;;;5.60;99.90;;;;;;4156447;28;20271;-61
2021/04/18 03:55:32;;;;;;;28.27;14.87;;;5.70;99.90;;;;;;4157154;28;20258;-61
2021/04/18 03:57:34;;;;;;;33.23;16.03;;;5.60;99.90;;;;;;4156475;28;20329;-61
2021/04/18 03:59:35;;;;;;;26.70;16.17;;;5.60;99.90;;;;;;4156709;28;20797;-62
2021/04/18 04:01:36;;;;;;;29.67;16.60;;;5.60;99.90;;;;;;4155559;28;20343;-61
2021/04/18 04:03:37;;;;;;;32.40;16.00;;;5.60;99.90;;;;;;4156645;28;21167;-62
2021/04/18 04:05:38;;;;;;;29.40;14.20;;;5.60;99.90;;;;;;4154976;28;20382;-62
2021/04/18 04:07:40;;;;;;;26.60;15.00;;;5.60;99.90;;;;;;4157454;28;20344;-62
2021/04/18 04:09:41;;;;;;;26.87;14.67;;;5.50;99.90;;;;;;4156303;28;20343;-62
2021/04/18 04:11:42;;;;;;;26.13;15.53;;;5.50;99.90;;;;;;4156706;28;20259;-61
2021/04/18 04:13:43;;;;;;;26.07;15.17;;;5.50;99.90;;;;;;4156334;28;20288;-61
2021/04/18 04:15:44;;;;;;;23.93;13.37;;;5.50;99.90;;;;;;4157517;28;20658;-62
2021/04/18 04:17:45;;;;;;;21.20;13.40;;;5.50;99.90;;;;;;4155777;28;20278;-61
2021/04/18 04:19:47;;;;;;;21.83;13.13;;;5.60;99.90;;;;;;4156994;28;20303;-62
2021/04/18 04:21:48;;;;;;;25.67;13.63;;;5.60;99.90;;;;;;4157564;28;20274;-62
2021/04/18 04:23:49;;;;;;;22.20;13.47;;;5.60;99.90;;;;;;4159918;28;20812;-61
2021/04/18 04:25:50;;;;;;;25.80;14.00;;;5.60;99.90;;;;;;4159134;28;20340;-62
2021/04/18 04:27:51;;;;;;;25.30;13.13;;;5.70;99.90;;;;;;4158834;28;20360;-61
2021/04/18 04:29:52;;;;;;;21.50;12.50;;;5.80;99.90;;;;;;4159942;28;20805;-61
2021/04/18 04:31:53;;;;;;;22.67;13.20;;;5.80;99.90;;;;;;4158501;28;20325;-61
2021/04/18 04:33:55;;;;;;;20.73;12.57;;;5.90;99.90;;;;;;4158956;28;20271;-61
2021/04/18 04:35:56;;;;;;;25.30;13.93;;;6.00;99.90;;;;;;4158598;28;20290;-61
2021/04/18 04:37:58;;;;;;;23.97;13.57;;;6.00;99.90;;;;;;4160095;28;20333;-61
2021/04/18 04:39:59;;;;;;;21.07;13.60;;;6.10;99.90;;;;;;4158090;28;20352;-62
2021/04/18 04:42:01;;;;;;;26.57;14.80;;;6.10;99.90;;;;;;4160185;28;20274;-61
2021/04/18 04:44:02;;;;;;;24.70;14.70;;;6.20;99.90;;;;;;4158750;28;20263;-62
2021/04/18 04:46:03;;;;;;;26.00;14.57;;;6.20;99.90;;;;;;4159601;28;20282;-61
2021/04/18 04:48:05;;;;;;;25.67;14.77;;;6.20;99.90;;;;;;4158060;28;20033;-62
2021/04/18 04:50:07;;;;;;;26.20;14.73;;;6.30;99.90;;;;;;4159491;28;20616;-62
2021/04/18 04:52:09;;;;;;;21.63;13.13;;;6.30;99.90;;;;;;4158872;28;20441;-62
2021/04/18 04:54:11;;;;;;;27.30;14.67;;;6.40;99.90;;;;;;4159162;28;20274;-62
2021/04/18 04:56:12;;;;;;;23.87;14.73;;;6.40;99.90;;;;;;4158953;28;20083;-62
2021/04/18 04:58:14;;;;;;;25.87;15.17;;;6.40;99.90;;;;;;4158734;28;20340;-62
2021/04/18 05:00:15;;;;;;;29.83;16.10;;;6.40;99.90;;;;;;4158733;28;20049;-62
2021/04/18 05:02:17;;;;;;;29.50;15.93;;;6.50;99.90;;;;;;4158183;28;20026;-61
2021/04/18 05:04:18;;;;;;;24.47;14.93;;;6.40;99.90;;;;;;4159466;28;20025;-63
2021/04/18 05:06:19;;;;;;;30.17;16.50;;;6.40;99.90;;;;;;4158213;28;20095;-62
2021/04/18 05:08:21;;;;;;;32.20;14.57;;;6.40;99.90;;;;;;4159821;28;20477;-61
2021/04/18 05:10:22;;;;;;;23.33;13.37;;;6.40;99.90;;;;;;4157938;28;20091;-64
2021/04/18 05:12:23;;;;;;;21.63;13.30;;;6.40;99.90;;;;;;4158986;28;20083;-62
2021/04/18 05:14:24;;;;;;;23.73;12.50;;;6.40;99.90;;;;;;4157778;28;20562;-61
2021/04/18 05:16:25;;;;;;;27.37;13.47;;;6.40;99.90;;;;;;4159372;28;20033;-62
2021/04/18 05:18:26;;;;;;;29.57;15.30;;;6.40;99.90;;;;;;4158175;28;20033;-61
2021/04/18 05:20:27;;;;;;;20.93;12.47;;;6.50;99.90;;;;;;4158478;28;20646;-62
2021/04/18 05:22:29;;;;;;;19.53;11.83;;;6.60;99.90;;;;;;4158249;28;20045;-62
2021/04/18 05:24:30;;;;;;;17.30;11.07;;;6.60;99.90;;;;;;4158076;28;20765;-61
2021/04/18 05:26:31;;;;;;;20.43;11.03;;;6.60;99.90;;;;;;4158714;28;20682;-60
2021/04/18 05:28:33;;;;;;;19.60;11.63;;;6.70;99.90;;;;;;4158200;28;20057;-64
2021/04/18 05:30:34;;;;;;;23.83;11.70;;;6.70;99.90;;;;;;4159299;28;20037;-61
2021/04/18 05:32:36;;;;;;;25.27;12.57;;;6.80;99.90;;;;;;4156968;28;20041;-64
2021/04/18 05:34:37;;;;;;;20.43;11.80;;;6.80;99.90;;;;;;4157934;28;20041;-61
2021/04/18 05:36:39;;;;;;;20.53;12.70;;;6.90;99.90;;;;;;4157808;28;20532;-61
2021/04/18 05:38:40;;;;;;;25.03;14.37;;;7.00;99.90;;;;;;4159330;28;20481;-66
2021/04/18 05:40:41;;;;;;;24.83;13.30;;;7.00;99.90;;;;;;4157613;28;20977;-61
2021/04/18 05:42:42;;;;;;;21.00;12.53;;;7.10;99.90;;;;;;4158533;28;20041;-62
2021/04/18 05:44:43;;;;;;;21.50;12.47;;;7.20;99.90;;;;;;4157790;28;20033;-61
2021/04/18 05:46:45;;;;;;;18.20;11.67;;;7.30;99.90;;;;;;4158523;28;20029;-61
2021/04/18 05:48:46;;;;;;;19.90;12.00;;;7.30;99.90;;;;;;4157340;28;20091;-61
2021/04/18 05:50:47;;;;;;;21.40;12.97;;;7.30;99.90;;;;;;4158262;28;20505;-62
2021/04/18 05:52:48;;;;;;;19.40;12.73;;;7.40;99.90;;;;;;4157358;28;20090;-62
2021/04/18 05:54:51;;;;;;;20.63;11.43;;;7.40;99.90;;;;;;4158365;28;20029;-61
2021/04/18 05:56:52;;;;;;;19.77;10.93;;;7.40;99.90;;;;;;4156756;28;20038;-61
2021/04/18 05:58:53;;;;;;;17.77;11.27;;;7.40;99.90;;;;;;4157801;28;20048;-64
2021/04/18 06:00:55;;;;;;;18.13;10.47;;;7.40;99.90;;;;;;4158302;28;20045;-62
2021/04/18 06:02:56;;;;;;;16.43;10.13;;;7.40;99.90;;;;;;4157573;28;20041;-62
2021/04/18 06:04:57;;;;;;;19.93;11.63;;;7.40;99.90;;;;;;4158290;28;20026;-61
2021/04/18 06:06:58;;;;;;;17.70;10.67;;;7.40;99.90;;;;;;4157181;28;20544;-62
2021/04/18 06:08:59;;;;;;;20.20;11.47;;;7.40;99.90;;;;;;4158735;28;20033;-63
2021/04/18 06:11:01;;;;;;;17.03;10.73;;;7.30;99.90;;;;;;4157174;28;20052;-63
2021/04/18 06:13:02;;;;;;;20.87;12.30;;;7.20;99.90;;;;;;4158124;28;20067;-62
2021/04/18 06:15:05;;;;;;;21.07;12.17;;;7.20;99.90;;;;;;4156526;28;20045;-61
2021/04/18 06:17:06;;;;;;;20.77;11.47;;;7.30;99.90;;;;;;4157840;28;20087;-61
2021/04/18 06:19:07;;;;;;;19.50;11.83;;;7.30;99.90;;;;;;4156877;28;20524;-62
2021/04/18 06:21:08;;;;;;;19.93;11.43;;;7.30;99.90;;;;;;4157978;28;20092;-61
2021/04/18 06:23:10;;;;;;;18.80;11.70;;;7.20;99.90;;;;;;4156140;28;20079;-61
2021/04/18 06:25:12;;;;;;;23.10;12.20;;;7.20;99.90;;;;;;4157820;28;20434;-62
2021/04/18 06:27:13;;;;;;;28.60;16.17;;;7.20;99.90;;;;;;4156878;28;20440;-62
2021/04/18 06:29:14;;;;;;;21.77;12.43;;;7.20;99.90;;;;;;4156857;28;20771;-61
2021/04/18 06:31:15;;;;;;;20.47;11.90;;;7.30;99.90;;;;;;4156107;28;20033;-61
2021/04/18 06:33:17;;;;;;;21.20;12.83;;;7.20;99.90;;;;;;4156779;28;20037;-62
2021/04/18 06:35:18;;;;;;;21.73;12.97;;;7.30;99.90;;;;;;4157643;28;20437;-61
2021/04/18 06:37:19;;;;;;;21.20;11.73;;;7.20;99.90;;;;;;4156117;28;20105;-61
2021/04/18 06:39:21;;;;;;;20.83;12.00;;;7.20;99.90;;;;;;4157655;28;20080;-62
2021/04/18 06:41:23;;;;;;;21.40;11.80;;;7.20;99.90;;;;;;4156601;28;21065;-62
2021/04/18 06:43:26;;;;;;;18.40;12.37;;;7.30;99.90;;;;;;4157124;28;20045;-62
2021/04/18 06:45:27;;;;;;;19.80;12.00;;;7.30;99.90;;;;;;4155562;28;20025;-62
2021/04/18 06:47:30;;;;;;;20.37;11.83;;;7.30;99.90;;;;;;4157429;28;20100;-61
2021/04/18 06:49:31;;;;;;;20.17;10.57;;;7.30;99.90;;;;;;4156724;28;20087;-62
2021/04/18 06:51:32;;;;;;;16.50;10.80;;;7.30;99.90;;;;;;4156148;28;20087;-62
2021/04/18 06:53:33;;;;;;;20.93;11.83;;;7.30;99.90;;;;;;4156244;28;20029;-64
2021/04/18 06:55:36;;;;;;;19.23;11.40;;;7.30;99.90;;;;;;4157116;28;20029;-61
2021/04/18 06:57:38;;;;;;;17.83;10.50;;;7.20;99.90;;;;;;4156058;28;20107;-61
2021/04/18 06:59:39;;;;;;;17.23;10.30;;;7.20;99.90;;;;;;4157265;28;20042;-62
2021/04/18 07:01:40;;;;;;;17.37;11.00;;;7.20;99.90;;;;;;4156088;28;20378;-61
2021/04/18 07:03:41;;;;;;;16.37;10.27;;;7.30;99.90;;;;;;4155800;28;20368;-62
2021/04/18 07:05:45;;;;;;;16.57;9.87;;;7.30;99.90;;;;;;4156780;28;20033;-61
2021/04/18 07:07:47;;;;;;;18.27;11.87;;;7.30;99.90;;;;;;4155751;28;20099;-61
2021/04/18 07:09:49;;;;;;;15.33;9.53;;;7.30;99.90;;;;;;4157246;28;20462;-61
2021/04/18 07:11:56;;;;;;;17.43;11.07;;;7.40;99.90;;;;;;4155840;28;20563;-61
2021/04/18 07:14:20;;;;;;;15.97;8.13;;;7.50;99.90;;;;;;4157152;28;20030;-62
2021/04/18 07:16:22;;;;;;;16.83;10.17;;;7.60;99.90;;;;;;4155402;28;20037;-62
2021/04/18 07:18:40;;;;;;;14.20;9.07;;;7.70;99.90;;;;;;4156628;28;20164;-62
2021/04/18 07:20:55;;;;;;;24.07;11.00;;;7.80;99.90;;;;;;4155641;28;20048;-63
2021/04/18 07:22:56;;;;;;;19.10;9.77;;;7.90;99.90;;;;;;4155909;28;20469;-62
2021/04/18 07:25:02;;;;;;;48.50;21.27;;;8.00;99.90;;;;;;4137313;28;20454;-62
2021/04/18 07:27:05;;;;;;;17.20;10.17;;;8.00;99.90;;;;;;4157046;28;21015;-62
2021/04/18 07:29:17;;;;;;;20.70;11.03;;;8.10;99.90;;;;;;4155023;28;20449;-61
2021/04/18 07:31:34;;;;;;;15.23;8.70;;;8.20;99.90;;;;;;4156600;28;20122;-62
2021/04/18 07:33:58;;;;;;;15.23;8.47;;;8.20;99.90;;;;;;4156159;28;20084;-63
2021/04/18 07:35:59;;;;;;;12.80;8.40;;;8.30;99.90;;;;;;4155517;28;20501;-62
2021/04/18 07:38:23;;;;;;;21.07;10.43;;;8.30;99.90;;;;;;4154882;28;20111;-62
2021/04/18 07:40:30;;;;;;;15.20;8.23;;;8.30;99.90;;;;;;4155621;28;20523;-62
2021/04/18 07:42:34;;;;;;;12.73;6.43;;;8.30;99.90;;;;;;4154533;28;20033;-62
2021/04/18 07:44:37;;;;;;;6.90;4.60;;;8.40;99.90;;;;;;4156640;28;20026;-65
2021/04/18 07:46:39;;;;;;;8.20;5.17;;;8.40;99.90;;;;;;4155191;28;20030;-62
2021/04/18 07:48:40;;;;;;;5.73;4.30;;;8.40;99.90;;;;;;4156198;28;20041;-62
2021/04/18 07:50:43;;;;;;;7.13;4.40;;;8.40;99.90;;;;;;4155069;28;20045;-62
2021/04/18 07:52:46;;;;;;;9.17;4.33;;;8.30;99.90;;;;;;4156620;28;20033;-63
2021/04/18 07:54:47;;;;;;;10.57;4.33;;;8.30;99.90;;;;;;4154726;28;20462;-62
2021/04/18 07:56:49;;;;;;;6.03;4.10;;;8.30;99.90;;;;;;4158619;28;20033;-62
2021/04/18 07:58:50;;;;;;;6.07;4.30;;;8.40;99.90;;;;;;4158785;28;20037;-60
2021/04/18 08:00:51;;;;;;;7.50;4.47;;;8.40;99.90;;;;;;4159664;28;20095;-69
2021/04/18 08:02:53;;;;;;;6.67;4.23;;;8.60;99.90;;;;;;4162750;28;20037;-60
2021/04/18 08:04:56;;;;;;;6.47;4.43;;;8.70;99.90;;;;;;4160239;28;20404;-68
2021/04/18 08:06:59;;;;;;;9.87;5.93;;;8.70;99.90;;;;;;4159135;28;20087;-65
2021/04/18 08:09:15;;;;;;;8.57;5.80;;;8.80;99.90;;;;;;4159913;28;20033;-61
2021/04/18 08:11:19;;;;;;;8.00;4.03;;;8.90;99.90;;;;;;4158463;28;20370;-66
2021/04/18 08:13:26;;;;;;;7.87;3.93;;;8.90;99.90;;;;;;4159518;28;20520;-68
2021/04/18 08:15:28;;;;;;;5.73;4.20;;;9.00;99.90;;;;;;4158506;28;20083;-64
2021/04/18 08:17:29;;;;;;;6.90;4.37;;;9.00;99.90;;;;;;4159212;28;20072;-65
2021/04/18 08:19:30;;;;;;;8.33;4.57;;;9.10;99.90;;;;;;4159005;28;20063;-62
2021/04/18 08:21:37;;;;;;;6.53;3.87;;;9.30;99.90;;;;;;4159257;28;20080;-63
2021/04/18 08:23:40;;;;;;;6.10;4.10;;;9.40;99.90;;;;;;4159789;28;20406;-61
2021/04/18 08:26:05;;;;;;;7.10;4.57;;;9.50;99.90;;;;;;4158199;28;20544;-61
2021/04/18 08:28:13;;;;;;;7.17;4.17;;;9.70;99.90;;;;;;4144067;28;20495;-61
2021/04/18 08:30:15;;;;;;;7.33;4.63;;;9.80;99.90;;;;;;4158705;28;20505;-62
2021/04/18 08:32:16;;;;;;;4.93;3.73;;;9.90;99.90;;;;;;4158938;28;20056;-63
2021/04/18 08:34:26;;;;;;;6.90;4.13;;;10.00;99.90;;;;;;4157774;28;20569;-63
2021/04/18 08:36:29;;;;;;;7.65;4.20;;;10.00;99.80;;;;;;4159171;28;20123;-62
2021/04/18 08:38:30;;;;;;;6.80;4.30;;;10.10;99.90;;;;;;4158383;28;20516;-63
2021/04/18 08:40:32;;;;;;;8.83;4.40;;;10.40;99.60;;;;;;4160245;28;20096;-63
2021/04/18 08:42:33;;;;;;;9.17;5.20;;;10.60;99.10;;;;;;4158666;28;20083;-61
2021/04/18 08:44:35;;;;;;;8.33;4.53;;;10.80;98.70;;;;;;4158766;28;20071;-67
2021/04/18 08:46:36;;;;;;;6.93;3.83;;;10.80;98.10;;;;;;4157877;28;20501;-61
2021/04/18 08:48:38;;;;;;;8.97;5.10;;;10.70;96.70;;;;;;4159135;28;20037;-62
2021/04/18 08:50:55;;;;;;;7.37;4.03;;;10.80;96.80;;;;;;4157976;28;20084;-62
2021/04/18 08:53:02;;;;;;;5.53;4.23;;;10.90;96.50;;;;;;4159271;28;20666;-64
2021/04/18 08:55:07;;;;;;;10.83;5.00;;;11.20;96.60;;;;;;4157972;28;20038;-63
2021/04/18 08:57:14;;;;;;;13.37;5.93;;;11.30;96.20;;;;;;4159171;28;20451;-62
2021/04/18 08:59:21;;;;;;;9.77;6.87;;;11.60;96.00;;;;;;4158417;28;20091;-61
2021/04/18 09:01:23;;;;;;;19.27;12.00;;;11.70;95.70;;;;;;4158772;28;20049;-64
2021/04/18 09:03:24;;;;;;;6.80;4.17;;;11.80;94.90;;;;;;4157321;28;20049;-63
2021/04/18 09:05:26;;;;;;;7.07;3.77;;;11.90;94.10;;;;;;4158877;28;20375;-63
2021/04/18 09:07:29;;;;;;;5.37;4.00;;;11.80;92.90;;;;;;4157207;28;20017;-62
2021/04/18 09:09:30;;;;;;;8.83;4.37;;;11.60;90.90;;;;;;4159248;28;20021;-64
2021/04/18 09:11:37;;;;;;;4.77;3.97;;;11.40;91.40;;;;;;4158329;28;20041;-62
2021/04/18 09:13:52;;;;;;;4.60;3.30;;;11.50;90.50;;;;;;4158473;28;20531;-62
2021/04/18 09:15:53;;;;;;;5.07;3.53;;;11.50;88.40;;;;;;4157883;28;20017;-63
2021/04/18 09:17:55;;;;;;;5.10;3.40;;;11.70;88.20;;;;;;4158352;28;20071;-63
2021/04/18 09:20:02;;;;;;;6.80;3.80;;;11.90;85.40;;;;;;4158176;28;20114;-62
2021/04/18 09:22:07;;;;;;;6.17;3.40;;;11.90;84.10;;;;;;4158030;28;20512;-62
2021/04/18 09:24:08;;;;;;;4.63;3.40;;;12.00;81.80;;;;;;4158034;28;20041;-61
2021/04/18 09:26:10;;;;;;;6.10;3.30;;;12.00;81.00;;;;;;4157474;28;20037;-62
2021/04/18 09:28:12;;;;;;;5.47;4.30;;;11.90;79.50;;;;;;4158360;28;20049;-62
2021/04/18 09:30:15;;;;;;;5.03;3.90;;;11.80;79.00;;;;;;4157634;28;20029;-61
2021/04/18 09:32:25;;;;;;;5.70;3.60;;;11.60;78.50;;;;;;4155487;28;20071;-62
2021/04/18 09:34:27;;;;;;;5.78;3.83;;;11.50;78.80;;;;;;4157034;28;20026;-62
2021/04/18 09:36:28;;;;;;;8.43;4.03;;;11.40;80.30;;;;;;4158188;28;20033;-62
2021/04/18 09:38:31;;;;;;;7.70;3.93;;;11.30;80.60;;;;;;4157032;28;20022;-61
2021/04/18 09:40:37;;;;;;;6.27;4.37;;;11.20;81.90;;;;;;4158334;28;20095;-62
2021/04/18 09:42:43;;;;;;;6.10;3.83;;;11.10;82.30;;;;;;4163632;28;20037;-61
2021/04/18 09:44:46;;;;;;;7.77;5.03;;;11.10;83.00;;;;;;4174166;28;20037;-62
2021/04/18 09:46:47;;;;;;;7.30;4.57;;;10.90;84.40;;;;;;4172939;28;20037;-61
2021/04/18 09:49:00;;;;;;;6.40;4.90;;;10.90;85.50;;;;;;4173821;28;20107;-60
2021/04/18 09:51:04;;;;;;;4.97;4.43;;;10.90;85.60;;;;;;4172467;28;20059;-61
2021/04/18 09:53:22;;;;;;;8.07;5.10;;;10.90;87.20;;;;;;4173856;28;20095;-60
2021/04/18 09:55:25;;;;;;;7.83;4.70;;;11.10;87.40;;;;;;4173536;28;20033;-62
2021/04/18 09:57:27;;;;;;;5.90;4.40;;;11.20;86.90;;;;;;4173674;28;20021;-61
2021/04/18 09:59:28;;;;;;;5.40;4.33;;;11.20;85.40;;;;;;4172002;28;20489;-61
2021/04/18 10:01:35;;;;;;;9.23;4.87;;;11.20;85.70;;;;;;4173729;28;20049;-62
2021/04/18 10:03:42;;;;;;;7.97;4.97;;;11.20;85.40;;;;;;4172645;28;20029;-61
2021/04/18 10:05:43;;;;;;;8.50;5.10;;;11.20;85.10;;;;;;4173368;28;20095;-61
2021/04/18 10:07:44;;;;;;;7.23;4.37;;;11.20;84.70;;;;;;4173279;28;20079;-62
2021/04/18 10:09:54;;;;;;;8.20;4.77;;;11.10;85.00;;;;;;4173863;28;20543;-65
2021/04/18 10:11:59;;;;;;;6.57;4.97;;;11.00;85.60;;;;;;4172733;28;20041;-61
2021/04/18 10:14:00;;;;;;;9.47;4.87;;;11.10;86.30;;;;;;4173600;28;20655;-64
2021/04/18 10:16:07;;;;;;;8.43;5.10;;;11.00;85.90;;;;;;4173797;28;20087;-65
2021/04/18 10:18:11;;;;;;;8.17;5.23;;;10.90;85.50;;;;;;4172749;28;20033;-62
2021/04/18 10:20:25;;;;;;;6.70;5.00;;;10.90;86.30;;;;;;4172892;28;20041;-63
2021/04/18 10:22:26;;;;;;;8.03;4.63;;;10.80;87.60;;;;;;4172903;28;20041;-61
2021/04/18 10:24:43;;;;;;;8.03;5.00;;;10.80;88.20;;;;;;4173000;28;20033;-63
2021/04/18 10:26:44;;;;;;;15.33;8.17;;;10.80;88.90;;;;;;4172524;28;20556;-63
2021/04/18 10:28:47;;;;;;;8.30;6.03;;;10.70;89.70;;;;;;4173488;28;20115;-62
2021/04/18 10:30:48;;;;;;;7.70;5.47;;;10.60;90.20;;;;;;4172436;28;20036;-61
2021/04/18 10:32:49;;;;;;;7.43;5.30;;;10.60;90.90;;;;;;4172427;28;20098;-62